createdAt,value
2018-11-25T00:02:23.543Z,18.37
2018-11-25T00:04:56.490Z,18.13
2018-11-25T00:07:34.692Z,19.93
2018-11-25T00:10:13.160Z,18.07
2018-11-25T00:12:56.249Z,18.10
2018-11-25T00:15:43.256Z,19.77
2018-11-25T00:18:14.294Z,17.37
2018-11-25T00:20:57.620Z,14.97
2018-11-25T00:23:36.267Z,17.83
2018-11-25T00:26:08.815Z,18.70
2018-11-25T00:28:45.608Z,17.63
2018-11-25T00:31:22.069Z,18.02
2018-11-25T00:36:41.749Z,18.13
2018-11-25T00:39:13.299Z,16.43
2018-11-25T00:41:47.315Z,12.03
2018-11-25T00:44:20.437Z,16.73
2018-11-25T00:46:54.474Z,15.63
2018-11-25T00:52:08.996Z,15.73
2018-11-25T00:54:41.614Z,16.97
2018-11-25T00:57:15.768Z,15.80
2018-11-25T00:59:55.149Z,17.48
2018-11-25T01:02:35.124Z,17.10
2018-11-25T01:05:14.422Z,18.45
2018-11-25T01:07:46.521Z,17.48
2018-11-25T01:10:29.237Z,17.70
2018-11-25T01:13:04.228Z,17.87
2018-11-25T01:15:37.472Z,15.57
2018-11-25T01:18:10.135Z,17.80
2018-11-25T01:20:41.323Z,17.67
2018-11-25T01:23:14.365Z,17.80
2018-11-25T01:25:45.858Z,17.23
2018-11-25T01:28:17.277Z,19.10
2018-11-25T01:30:49.724Z,18.10
2018-11-25T01:33:20.750Z,16.53
2018-11-25T01:35:51.487Z,16.67
2018-11-25T01:38:24.997Z,17.70
2018-11-25T01:40:56.043Z,15.67
2018-11-25T01:43:26.937Z,17.40
2018-11-25T01:45:58.948Z,17.98
2018-11-25T01:48:31.707Z,17.27
2018-11-25T01:51:02.956Z,17.43
2018-11-25T01:53:34.376Z,16.48
2018-11-25T01:56:06.574Z,17.03
2018-11-25T01:58:39.220Z,17.87
2018-11-25T02:01:12.661Z,20.00
2018-11-25T02:03:46.333Z,20.65
2018-11-25T02:06:17.180Z,19.27
2018-11-25T02:08:47.863Z,18.37
2018-11-25T02:11:18.746Z,19.20
2018-11-25T02:13:49.507Z,19.57
2018-11-25T02:16:20.093Z,18.98
2018-11-25T02:18:51.025Z,18.62
2018-11-25T02:21:21.819Z,18.17
2018-11-25T02:23:53.579Z,20.57
2018-11-25T02:26:24.224Z,19.52
2018-11-25T02:28:55.548Z,18.83
2018-11-25T02:31:26.642Z,19.73
2018-11-25T02:33:57.271Z,18.65
2018-11-25T02:36:28.213Z,19.98
2018-11-25T02:38:58.836Z,19.97
2018-11-25T02:41:29.473Z,21.55
2018-11-25T02:44:00.366Z,20.27
2018-11-25T02:46:31.867Z,21.30
2018-11-25T02:49:02.430Z,19.60
2018-11-25T02:51:33.125Z,19.77
2018-11-25T02:54:04.430Z,20.25
2018-11-25T02:56:35.479Z,19.60
2018-11-25T02:59:06.506Z,20.62
2018-11-25T03:01:37.121Z,19.15
2018-11-25T03:04:07.769Z,22.37
2018-11-25T03:06:38.283Z,21.23
2018-11-25T03:09:09.560Z,20.57
2018-11-25T03:11:40.140Z,21.68
2018-11-25T03:14:11.356Z,19.90
2018-11-25T03:16:42.501Z,21.35
2018-11-25T03:19:13.755Z,21.85
2018-11-25T03:21:44.920Z,20.72
2018-11-25T03:24:15.666Z,22.15
2018-11-25T03:26:46.776Z,19.97
2018-11-25T03:29:18.039Z,17.30
2018-11-25T03:31:50.133Z,19.85
2018-11-25T03:34:21.842Z,18.20
2018-11-25T03:36:52.777Z,15.98
2018-11-25T03:39:23.236Z,18.57
2018-11-25T03:41:53.847Z,18.47
2018-11-25T03:44:25.507Z,4.20
2018-11-25T03:46:56.258Z,15.50
2018-11-25T03:49:27.056Z,15.93
2018-11-25T03:51:58.203Z,11.70
2018-11-25T03:54:28.335Z,12.63
2018-11-25T03:56:59.026Z,11.78
2018-11-25T03:59:29.208Z,8.60
2018-11-25T04:02:01.534Z,6.47
2018-11-25T04:04:32.254Z,10.93
2018-11-25T04:07:03.386Z,12.37
2018-11-25T04:09:34.968Z,10.55
2018-11-25T04:12:07.684Z,13.48
2018-11-25T04:14:40.261Z,13.70
2018-11-25T04:17:11.957Z,12.68
2018-11-25T04:19:42.955Z,13.97
2018-11-25T04:22:15.632Z,13.22
2018-11-25T04:24:46.864Z,13.87
2018-11-25T04:27:17.789Z,13.30
2018-11-25T04:29:49.235Z,11.63
2018-11-25T04:32:19.964Z,5.43
2018-11-25T04:34:50.736Z,15.03
2018-11-25T04:37:21.369Z,12.77
2018-11-25T04:39:52.802Z,8.23
2018-11-25T04:42:23.755Z,13.13
2018-11-25T04:44:56.108Z,11.07
2018-11-25T04:47:26.825Z,12.07
2018-11-25T04:49:57.566Z,15.60
2018-11-25T04:52:28.300Z,12.20
2018-11-25T04:54:59.295Z,12.40
2018-11-25T04:57:31.401Z,12.47
2018-11-25T05:00:02.440Z,9.68
2018-11-25T05:02:35.372Z,8.43
2018-11-25T05:05:08.626Z,9.23
2018-11-25T05:07:40.420Z,12.63
2018-11-25T05:10:19.502Z,10.57
2018-11-25T05:12:50.574Z,10.03
2018-11-25T05:15:22.930Z,9.20
2018-11-25T05:17:54.037Z,13.20
2018-11-25T05:20:25.449Z,4.35
2018-11-25T05:22:58.169Z,11.67
2018-11-25T05:25:28.753Z,10.53
2018-11-25T05:27:59.252Z,9.20
2018-11-25T05:30:30.032Z,10.50
2018-11-25T05:33:00.747Z,9.07
2018-11-25T05:35:31.261Z,5.23
2018-11-25T05:38:03.364Z,6.60
2018-11-25T05:40:34.055Z,10.58
2018-11-25T05:43:04.974Z,9.77
2018-11-25T05:45:35.631Z,6.05
2018-11-25T05:48:06.759Z,9.07
2018-11-25T05:50:38.552Z,8.03
2018-11-25T05:53:11.373Z,5.03
2018-11-25T05:55:42.131Z,4.47
2018-11-25T05:58:13.111Z,8.27
2018-11-25T06:00:44.408Z,8.83
2018-11-25T06:03:15.889Z,7.58
2018-11-25T06:05:46.444Z,8.83
2018-11-25T06:08:17.606Z,9.85
2018-11-25T06:10:49.193Z,4.93
2018-11-25T06:13:20.042Z,8.30
2018-11-25T06:15:51.384Z,6.93
2018-11-25T06:18:22.094Z,7.67
2018-11-25T06:20:53.629Z,5.50
2018-11-25T06:23:24.201Z,7.55
2018-11-25T06:25:54.844Z,5.70
2018-11-25T06:28:26.273Z,6.57
2018-11-25T06:30:56.908Z,6.53
2018-11-25T06:33:28.235Z,8.50
2018-11-25T06:35:58.827Z,6.83
2018-11-25T06:38:29.535Z,8.30
2018-11-25T06:41:00.353Z,7.40
2018-11-25T06:43:31.123Z,5.97
2018-11-25T06:46:02.410Z,6.22
2018-11-25T06:48:33.305Z,3.45
2018-11-25T06:51:04.663Z,2.90
2018-11-25T06:53:36.596Z,4.70
2018-11-25T06:56:07.519Z,6.83
2018-11-25T06:58:38.138Z,6.92
2018-11-25T07:01:10.864Z,6.83
2018-11-25T07:03:41.378Z,5.67
2018-11-25T07:06:12.382Z,7.77
2018-11-25T07:08:43.329Z,4.27
2018-11-25T07:11:14.276Z,7.22
2018-11-25T07:13:45.097Z,7.70
2018-11-25T07:16:18.479Z,5.33
2018-11-25T07:18:50.591Z,4.57
2018-11-25T07:21:22.979Z,6.40
2018-11-25T07:23:55.227Z,4.78
2018-11-25T07:26:27.729Z,5.47
2018-11-25T07:28:58.722Z,6.50
2018-11-25T07:31:30.269Z,4.23
2018-11-25T07:34:00.998Z,7.83
2018-11-25T07:36:31.836Z,4.20
2018-11-25T07:39:03.587Z,7.50
2018-11-25T07:41:35.722Z,3.10
2018-11-25T07:44:07.394Z,7.37
2018-11-25T07:46:38.950Z,5.60
2018-11-25T07:49:10.492Z,9.33
2018-11-25T07:51:41.092Z,5.85
2018-11-25T07:54:11.676Z,8.33
2018-11-25T07:56:42.530Z,5.13
2018-11-25T07:59:13.375Z,4.90
2018-11-25T08:01:44.150Z,6.30
2018-11-25T08:04:15.885Z,5.53
2018-11-25T08:06:46.838Z,7.93
2018-11-25T08:09:18.983Z,4.83
2018-11-25T08:11:50.605Z,7.10
2018-11-25T08:14:31.110Z,5.03
2018-11-25T08:17:05.330Z,6.03
2018-11-25T08:19:37.386Z,5.00
2018-11-25T08:22:09.224Z,2.83
2018-11-25T08:24:42.662Z,5.43
2018-11-25T08:27:14.488Z,6.47
2018-11-25T08:29:48.189Z,5.37
2018-11-25T08:32:21.584Z,4.77
2018-11-25T08:34:52.711Z,3.17
2018-11-25T08:37:24.459Z,3.57
2018-11-25T08:39:55.048Z,5.50
2018-11-25T08:42:26.074Z,4.67
2018-11-25T08:44:57.277Z,2.70
2018-11-25T08:47:30.581Z,7.60
2018-11-25T08:50:01.521Z,6.90
2018-11-25T08:52:33.414Z,7.00
2018-11-25T08:55:05.237Z,6.07
2018-11-25T08:57:45.027Z,7.63
2018-11-25T09:00:25.330Z,4.10
2018-11-25T09:02:59.704Z,3.77
2018-11-25T09:05:30.493Z,4.37
2018-11-25T09:08:02.254Z,5.57
2018-11-25T09:10:34.201Z,7.33
2018-11-25T09:13:05.860Z,5.97
2018-11-25T09:15:39.027Z,8.20
2018-11-25T09:18:10.661Z,7.60
2018-11-25T09:20:41.253Z,6.62
2018-11-25T09:23:11.890Z,2.90
2018-11-25T09:25:43.740Z,6.20
2018-11-25T09:28:14.595Z,4.15
2018-11-25T09:30:47.782Z,4.73
2018-11-25T09:33:19.680Z,6.20
2018-11-25T09:35:50.543Z,5.00
2018-11-25T09:38:21.621Z,6.30
2018-11-25T09:40:58.970Z,3.27
2018-11-25T09:43:23.487Z,4.17
2018-11-25T09:45:54.520Z,4.50
2018-11-25T09:48:25.255Z,3.40
2018-11-25T09:50:57.056Z,4.10
2018-11-25T09:53:30.609Z,2.47
2018-11-25T09:56:02.275Z,1.92
2018-11-25T09:58:35.677Z,4.10
2018-11-25T10:01:17.980Z,2.30
2018-11-25T10:03:59.857Z,2.25
2018-11-25T10:06:31.018Z,2.13
2018-11-25T10:09:02.174Z,3.73
2018-11-25T10:11:33.313Z,3.77
2018-11-25T10:14:04.536Z,3.17
2018-11-25T10:16:35.965Z,2.20
2018-11-25T10:19:07.129Z,2.90
2018-11-25T10:21:39.801Z,3.20
2018-11-25T10:24:11.042Z,5.60
2018-11-25T10:26:43.076Z,6.40
2018-11-25T10:31:53.680Z,4.47
2018-11-25T10:34:25.381Z,5.83
2018-11-25T10:36:57.446Z,6.30
2018-11-25T10:39:30.556Z,7.70
2018-11-25T10:42:08.866Z,3.83
2018-11-25T10:44:46.657Z,4.97
2018-11-25T10:47:20.149Z,7.40
2018-11-25T10:50:01.746Z,5.67
2018-11-25T10:52:34.169Z,5.23
2018-11-25T10:55:08.832Z,6.60
2018-11-25T10:57:40.549Z,7.10
2018-11-25T11:00:40.596Z,7.30
2018-11-25T11:03:17.169Z,5.63
2018-11-25T11:05:53.673Z,6.53
2018-11-25T11:08:26.238Z,5.93
2018-11-25T11:10:56.950Z,7.43
2018-11-25T11:13:28.152Z,6.30
2018-11-25T11:16:00.400Z,6.63
2018-11-25T11:18:32.352Z,5.78
2018-11-25T11:21:04.657Z,7.75
2018-11-25T11:23:36.414Z,4.10
2018-11-25T11:26:12.605Z,6.25
2018-11-25T11:28:44.328Z,7.45
2018-11-25T11:31:15.139Z,7.20
2018-11-25T11:33:49.899Z,3.57
2018-11-25T11:36:21.653Z,6.60
2018-11-25T11:39:00.470Z,4.70
2018-11-25T11:41:34.658Z,3.22
2018-11-25T11:44:07.039Z,4.90
2018-11-25T11:46:39.179Z,4.93
2018-11-25T11:49:10.532Z,4.03
2018-11-25T11:51:41.773Z,6.97
2018-11-25T11:54:13.961Z,8.38
2018-11-25T11:56:44.925Z,6.55
2018-11-25T11:59:18.852Z,3.60
2018-11-25T12:01:50.646Z,6.10
2018-11-25T12:04:24.935Z,8.88
2018-11-25T12:06:59.819Z,9.30
2018-11-25T12:09:39.433Z,7.10
2018-11-25T12:12:11.426Z,7.30
2018-11-25T12:14:45.784Z,9.90
2018-11-25T12:17:19.313Z,6.13
2018-11-25T12:19:51.681Z,7.33
2018-11-25T12:22:22.673Z,11.53
2018-11-25T12:24:54.653Z,9.30
2018-11-25T12:27:25.474Z,11.57
2018-11-25T12:29:57.278Z,12.97
2018-11-25T12:32:28.912Z,13.30
2018-11-25T12:35:00.124Z,14.10
2018-11-25T12:37:35.878Z,10.57
2018-11-25T12:40:03.199Z,12.97
2018-11-25T12:42:34.093Z,15.00
2018-11-25T12:45:05.046Z,13.33
2018-11-25T12:47:35.844Z,11.00
2018-11-25T12:50:09.442Z,14.03
2018-11-25T12:52:40.286Z,7.23
2018-11-25T12:55:18.022Z,13.53
2018-11-25T12:57:49.943Z,12.70
2018-11-25T13:00:44.845Z,14.85
2018-11-25T13:03:15.997Z,16.45
2018-11-25T13:05:46.798Z,16.65
2018-11-25T13:08:17.656Z,17.48
2018-11-25T13:10:49.220Z,15.87
2018-11-25T13:13:20.558Z,13.83
2018-11-25T13:15:52.231Z,13.97
2018-11-25T13:18:28.638Z,15.23
2018-11-25T13:20:59.422Z,15.03
2018-11-25T13:23:29.974Z,14.07
2018-11-25T13:26:00.601Z,15.00
2018-11-25T13:28:33.121Z,12.65
2018-11-25T13:31:05.517Z,14.78
2018-11-25T13:33:36.385Z,13.40
2018-11-25T13:36:10.092Z,12.00
2018-11-25T13:38:41.563Z,14.93
2018-11-25T13:41:12.648Z,15.30
2018-11-25T13:43:43.424Z,14.17
2018-11-25T13:46:14.342Z,16.07
2018-11-25T13:48:45.460Z,13.35
2018-11-25T13:51:17.387Z,15.13
2018-11-25T13:53:48.317Z,13.45
2018-11-25T13:56:19.208Z,16.37
2018-11-25T13:58:51.056Z,14.63
2018-11-25T14:01:21.840Z,15.95
2018-11-25T14:03:52.808Z,15.85
2018-11-25T14:06:23.435Z,15.05
2018-11-25T14:08:56.245Z,15.90
2018-11-25T14:11:28.459Z,15.15
2018-11-25T14:13:59.147Z,14.13
2018-11-25T14:16:30.223Z,14.78
2018-11-25T14:19:00.840Z,13.60
2018-11-25T14:21:31.565Z,15.80
2018-11-25T14:24:02.313Z,14.97
2018-11-25T14:26:39.099Z,14.28
2018-11-25T14:29:09.916Z,12.82
2018-11-25T14:31:41.857Z,13.03
2018-11-25T14:34:12.591Z,11.88
2018-11-25T14:36:43.249Z,11.83
2018-11-25T14:39:14.873Z,12.50
2018-11-25T14:41:46.764Z,13.53
2018-11-25T14:44:17.485Z,12.50
2018-11-25T14:46:48.760Z,13.50
2018-11-25T14:49:19.392Z,13.77
2018-11-25T14:51:50.111Z,12.35
2018-11-25T14:54:20.829Z,14.55
2018-11-25T14:56:51.783Z,14.30
2018-11-25T14:59:23.059Z,14.80
2018-11-25T15:01:53.729Z,16.05
2018-11-25T15:04:24.340Z,15.20
2018-11-25T15:06:54.927Z,14.30
2018-11-25T15:09:25.557Z,15.35
2018-11-25T15:11:56.121Z,15.55
2018-11-25T15:14:26.772Z,15.98
2018-11-25T15:16:57.510Z,15.75
2018-11-25T15:19:29.148Z,17.00
2018-11-25T15:21:59.845Z,16.02
2018-11-25T15:24:30.520Z,17.63
2018-11-25T15:27:01.189Z,14.80
2018-11-25T15:29:32.119Z,17.75
2018-11-25T15:32:02.727Z,16.32
2018-11-25T15:34:34.391Z,16.97
2018-11-25T15:37:05.845Z,16.90
2018-11-25T15:39:36.648Z,18.00
2018-11-25T15:42:07.731Z,15.48
2018-11-25T15:44:38.430Z,17.50
2018-11-25T15:47:09.007Z,16.50
2018-11-25T15:49:39.615Z,15.58
2018-11-25T15:52:12.692Z,15.93
2018-11-25T15:54:43.533Z,17.05
2018-11-25T15:57:14.091Z,16.50
2018-11-25T15:59:44.824Z,16.67
2018-11-25T16:02:15.716Z,15.40
2018-11-25T16:04:46.264Z,17.45
2018-11-25T16:07:17.195Z,13.57
2018-11-25T16:09:48.137Z,16.33
2018-11-25T16:12:20.157Z,16.87
2018-11-25T16:14:51.385Z,16.67
2018-11-25T16:17:22.088Z,17.42
2018-11-25T16:19:55.107Z,15.65
2018-11-25T16:22:26.138Z,16.93
2018-11-25T16:24:56.752Z,18.65
2018-11-25T16:27:27.476Z,17.52
2018-11-25T16:29:58.386Z,18.37
2018-11-25T16:32:29.020Z,18.40
2018-11-25T16:35:00.728Z,18.10
2018-11-25T16:37:33.048Z,18.47
2018-11-25T16:40:04.550Z,17.60
2018-11-25T16:42:35.172Z,15.40
2018-11-25T16:45:08.143Z,18.40
2018-11-25T16:47:40.742Z,18.03
2018-11-25T16:50:24.931Z,11.68
2018-11-25T16:52:50.335Z,18.32
2018-11-25T16:55:21.237Z,17.90
2018-11-25T16:57:51.967Z,11.20
2018-11-25T17:00:22.881Z,13.77
2018-11-25T17:02:55.260Z,14.63
2018-11-25T17:05:31.001Z,9.90
2018-11-25T17:08:30.928Z,14.83
2018-11-25T17:11:02.398Z,11.10
2018-11-25T17:13:33.204Z,18.00
2018-11-25T17:16:04.040Z,16.42
2018-11-25T17:18:34.898Z,17.90
2018-11-25T17:21:05.713Z,17.77
2018-11-25T17:23:37.368Z,17.03
2018-11-25T17:26:10.707Z,15.70
2018-11-25T17:28:42.116Z,12.55
2018-11-25T17:31:15.726Z,14.00
2018-11-25T17:33:46.775Z,16.05
2018-11-25T17:36:19.353Z,12.60
2018-11-25T17:38:52.450Z,13.55
2018-11-25T17:41:25.445Z,10.50
2018-11-25T17:43:56.859Z,9.70
2018-11-25T17:46:29.612Z,7.60
2018-11-25T17:49:01.948Z,7.53
2018-11-25T17:51:32.981Z,6.12
2018-11-25T17:54:06.360Z,6.30
2018-11-25T17:56:39.033Z,5.27
2018-11-25T17:59:10.617Z,4.35
2018-11-25T18:01:42.004Z,2.92
2018-11-25T18:04:12.921Z,4.42
2018-11-25T18:06:44.032Z,4.30
2018-11-25T18:09:14.706Z,4.30
2018-11-25T18:11:48.230Z,4.57
2018-11-25T18:14:21.241Z,4.43
2018-11-25T18:16:53.018Z,4.55
2018-11-25T18:19:27.411Z,5.30
2018-11-25T18:22:07.139Z,4.12
2018-11-25T18:24:37.959Z,6.37
2018-11-25T18:27:14.220Z,6.53
2018-11-25T18:29:48.026Z,7.10
2018-11-25T18:32:43.109Z,7.77
2018-11-25T18:35:15.267Z,7.90
2018-11-25T18:37:47.763Z,7.47
2018-11-25T18:40:19.455Z,6.80
2018-11-25T18:42:53.170Z,4.40
2018-11-25T18:45:25.835Z,6.57
2018-11-25T18:47:57.027Z,4.28
2018-11-25T18:50:28.333Z,4.90
2018-11-25T18:53:00.531Z,4.30
2018-11-25T18:55:29.608Z,4.23
2018-11-25T18:58:02.111Z,3.80
2018-11-25T19:00:56.380Z,2.07
2018-11-25T19:03:30.445Z,4.17
2018-11-25T19:06:03.535Z,5.08
2018-11-25T19:08:35.143Z,3.80
2018-11-25T19:11:06.237Z,3.45
2018-11-25T19:13:39.568Z,3.33
2018-11-25T19:16:10.775Z,3.30
2018-11-25T19:18:43.488Z,4.85
2018-11-25T19:21:15.681Z,4.55
2018-11-25T19:23:47.653Z,5.10
2018-11-25T19:26:21.618Z,5.80
2018-11-25T19:28:54.269Z,4.70
2018-11-25T19:31:30.438Z,4.40
2018-11-25T19:34:02.201Z,3.47
2018-11-25T19:36:38.006Z,3.25
2018-11-25T19:39:13.166Z,2.63
2018-11-25T19:41:49.895Z,3.27
2018-11-25T19:44:25.364Z,2.58
2018-11-25T19:46:57.989Z,2.62
2018-11-25T19:49:30.964Z,2.57
2018-11-25T19:52:02.586Z,3.52
2018-11-25T19:54:36.233Z,3.62
2018-11-25T19:57:09.451Z,4.20
2018-11-25T19:59:43.458Z,4.22
2018-11-25T20:02:16.667Z,3.47
2018-11-25T20:04:49.968Z,4.23
2018-11-25T20:07:22.103Z,4.03
2018-11-25T20:09:53.282Z,3.90
2018-11-25T20:12:30.426Z,4.03
2018-11-25T20:15:06.250Z,3.95
2018-11-25T20:17:37.652Z,3.52
2018-11-25T20:20:15.890Z,3.90
2018-11-25T20:22:54.156Z,4.20
2018-11-25T20:25:36.978Z,3.10
2018-11-25T20:28:09.044Z,2.87
2018-11-25T20:30:40.709Z,2.50
2018-11-25T20:33:18.676Z,2.10
2018-11-25T20:35:50.417Z,2.00
2018-11-25T20:38:29.051Z,2.33
2018-11-25T20:41:02.535Z,2.30
2018-11-25T20:43:35.522Z,2.62
2018-11-25T20:46:12.703Z,2.40
2018-11-25T20:48:48.299Z,2.62
2018-11-25T20:51:24.411Z,2.12
2018-11-25T20:54:00.338Z,2.07
2018-11-25T20:56:31.927Z,0.95
2018-11-25T20:59:04.914Z,2.00
2018-11-25T21:01:36.669Z,2.08
2018-11-25T21:04:09.304Z,1.97
2018-11-25T21:06:45.457Z,1.98
2018-11-25T21:09:18.436Z,2.10
2018-11-25T21:11:49.536Z,2.42
2018-11-25T21:20:02.524Z,2.80
2018-11-25T21:22:33.271Z,3.30
2018-11-25T21:25:04.388Z,3.98
2018-11-25T21:27:35.142Z,4.53
2018-11-25T21:30:11.709Z,3.62
2018-11-25T21:32:42.444Z,3.70
2018-11-25T21:35:14.069Z,4.60
2018-11-25T21:37:44.812Z,4.87
2018-11-25T21:40:20.190Z,4.80
2018-11-25T21:42:51.968Z,3.23
2018-11-25T21:45:23.544Z,4.62
2018-11-25T21:47:54.910Z,4.83
2018-11-25T21:50:27.932Z,3.65
2018-11-25T21:52:58.710Z,4.95
2018-11-25T21:55:30.318Z,5.57
2018-11-25T21:58:01.457Z,4.90
2018-11-25T22:00:33.517Z,2.90
2018-11-25T22:03:05.451Z,5.10
2018-11-25T22:08:31.592Z,3.50
2018-11-25T22:11:03.125Z,3.77
2018-11-25T22:13:33.967Z,3.62
2018-11-25T22:16:10.642Z,4.03
2018-11-25T22:18:42.912Z,3.92
2018-11-25T22:21:13.660Z,4.22
2018-11-25T22:23:46.571Z,3.42
2018-11-25T22:26:17.854Z,3.37
2018-11-25T22:28:48.516Z,3.62
2018-11-25T22:31:19.072Z,4.33
2018-11-25T22:33:50.730Z,4.03
2018-11-25T22:36:21.390Z,4.65
2018-11-25T22:38:52.007Z,4.30
2018-11-25T22:41:23.686Z,3.52
2018-11-25T22:43:55.225Z,4.00
2018-11-25T22:46:26.606Z,4.05
2018-11-25T22:48:57.949Z,4.07
2018-11-25T22:51:28.520Z,4.33
2018-11-25T22:54:01.139Z,3.70
2018-11-25T22:56:32.872Z,2.42
2018-11-25T22:59:04.489Z,1.98
2018-11-25T23:01:35.694Z,1.90
2018-11-25T23:04:24.231Z,2.67
2018-11-25T23:07:05.005Z,3.12
2018-11-25T23:09:38.793Z,3.47
2018-11-25T23:12:10.953Z,4.70
2018-11-25T23:14:42.950Z,4.22
2018-11-25T23:17:13.740Z,3.43
2018-11-25T23:19:45.255Z,3.77
2018-11-25T23:22:16.230Z,1.32
2018-11-25T23:24:46.966Z,4.17
2018-11-25T23:27:19.010Z,4.03
2018-11-25T23:29:53.487Z,4.47
2018-11-25T23:32:25.228Z,4.00
2018-11-25T23:34:56.474Z,1.50
2018-11-25T23:37:28.560Z,3.17
2018-11-25T23:40:01.012Z,3.50
2018-11-25T23:42:31.654Z,3.70
2018-11-25T23:45:02.631Z,2.70
2018-11-25T23:49:15.995Z,2.55
2018-11-25T23:51:50.136Z,2.77
2018-11-25T23:54:22.907Z,3.30
2018-11-25T23:56:54.306Z,3.63
2018-11-25T23:59:25.842Z,1.93
